createdAt,value
2022-10-07T00:00:00.666Z,6072.9800000000005
2022-10-07T00:05:00.808Z,5834.795
2022-10-07T00:10:00.671Z,5273.388
2022-10-07T00:15:00.721Z,4867.473
2022-10-07T00:20:00.864Z,4034.986
2022-10-07T00:25:00.720Z,1573.835
2022-10-07T00:30:00.930Z,3901.5640000000003
2022-10-07T00:35:00.718Z,4264.695
2022-10-07T00:40:00.678Z,1681.4460000000001
2022-10-07T00:45:00.739Z,1423.857
2022-10-07T00:50:00.685Z,1597.3400000000001
2022-10-07T00:55:00.870Z,1434.295
2022-10-07T01:00:00.705Z,1406.58
2022-10-07T01:05:00.693Z,1592.983
2022-10-07T01:10:00.815Z,1541.642
2022-10-07T01:15:00.810Z,1114.527
2022-10-07T01:20:00.902Z,1493.935
2022-10-07T01:25:00.777Z,3565.801
2022-10-07T01:30:00.728Z,3413.3720000000003
2022-10-07T01:35:00.745Z,4077.462
2022-10-07T01:40:00.867Z,2168.102
2022-10-07T01:45:00.998Z,1344.383
2022-10-07T01:50:00.747Z,1238.33
2022-10-07T01:55:00.756Z,1317.059
2022-10-07T02:00:01.000Z,1131.041
2022-10-07T02:05:00.869Z,635.97
2022-10-07T02:10:00.966Z,218.042
2022-10-07T02:15:00.778Z,491.76
2022-10-07T02:20:00.779Z,761.218
2022-10-07T02:25:00.798Z,753.441
2022-10-07T02:30:00.951Z,641.745
2022-10-07T02:35:01.009Z,462.192
2022-10-07T02:40:00.767Z,190.461
2022-10-07T02:45:00.830Z,373.18600000000004
2022-10-07T02:50:00.765Z,631.271
2022-10-07T02:55:00.966Z,675.785
2022-10-07T03:00:00.827Z,724.566
2022-10-07T03:05:00.840Z,736.136
2022-10-07T03:10:00.809Z,661.808
2022-10-07T03:15:00.972Z,291.38100000000003
2022-10-07T03:20:00.963Z,206.827
2022-10-07T03:25:00.818Z,428.141
2022-10-07T03:30:00.868Z,637.648
2022-10-07T03:35:00.851Z,634.197
2022-10-07T03:40:00.828Z,761.8820000000001
2022-10-07T03:45:01.012Z,668.15
2022-10-07T03:50:01.047Z,320.294
2022-10-07T03:55:00.919Z,242.852
2022-10-07T04:00:00.867Z,604.806
2022-10-07T04:05:00.840Z,605.154
2022-10-07T04:10:00.999Z,578.549
2022-10-07T04:15:00.872Z,959.663
2022-10-07T04:20:00.864Z,2343.859
2022-10-07T04:25:00.885Z,2432.408
2022-10-07T04:30:00.889Z,2932.7980000000002
2022-10-07T04:35:01.027Z,3199.038
2022-10-07T04:40:01.345Z,581.713
2022-10-07T04:45:00.906Z,413.20300000000003
2022-10-07T04:50:00.951Z,160.366
2022-10-07T04:55:00.924Z,161.744
2022-10-07T05:00:01.041Z,469.035
2022-10-07T05:05:01.122Z,661.415
2022-10-07T05:10:00.930Z,686.078
2022-10-07T05:15:00.944Z,581.323
2022-10-07T05:20:00.946Z,1053.403
2022-10-07T05:25:00.949Z,301.499
2022-10-07T05:30:01.117Z,690.203
2022-10-07T05:35:00.952Z,682.918
2022-10-07T05:40:00.962Z,660.2
2022-10-07T05:45:00.997Z,442.545
2022-10-07T05:50:00.933Z,364.415
2022-10-07T05:55:01.114Z,344.88100000000003
2022-10-07T06:00:01.315Z,606.211
2022-10-07T06:05:00.954Z,648.217
2022-10-07T06:10:00.993Z,568.648
2022-10-07T06:15:00.968Z,338.94100000000003
2022-10-07T06:20:01.125Z,168.77700000000002
2022-10-07T06:25:01.576Z,731.631
2022-10-07T06:30:00.976Z,2563.937
2022-10-07T06:35:00.965Z,2839.348
2022-10-07T06:40:01.085Z,3266.8340000000003
2022-10-07T06:45:01.025Z,1711.913
2022-10-07T06:50:01.244Z,178.948
2022-10-07T06:55:01.103Z,147.181
2022-10-07T07:00:01.289Z,356.40000000000003
2022-10-07T07:10:01.053Z,562.862
2022-10-07T07:15:01.176Z,351.943
2022-10-07T07:20:01.260Z,292.868
2022-10-07T07:25:01.103Z,285.37
2022-10-07T07:30:01.005Z,532.681
2022-10-07T07:35:01.033Z,611.248
2022-10-07T07:40:01.179Z,593.546
2022-10-07T07:45:01.254Z,305.175
2022-10-07T07:50:01.037Z,176.6
2022-10-07T07:55:01.008Z,152.467
2022-10-07T08:00:01.059Z,493.329
2022-10-07T08:05:01.181Z,706.48
2022-10-07T08:10:01.343Z,697.91
2022-10-07T08:15:01.115Z,415.242
2022-10-07T08:20:01.126Z,179.067
2022-10-07T08:25:01.165Z,178.38400000000001
2022-10-07T08:30:01.130Z,335.50600000000003
2022-10-07T08:35:01.327Z,579.729
2022-10-07T08:40:01.176Z,567.299
2022-10-07T08:45:01.112Z,585.575
2022-10-07T08:50:01.108Z,264.363
2022-10-07T08:55:01.239Z,260.25600000000003
2022-10-07T09:00:01.284Z,219.853
2022-10-07T09:05:01.108Z,569.684
2022-10-07T09:10:01.238Z,590.3770000000001
2022-10-07T09:15:01.171Z,572.635
2022-10-07T09:20:01.258Z,180.179
2022-10-07T09:25:01.326Z,206.199
2022-10-07T09:30:01.428Z,302.668
2022-10-07T09:35:01.214Z,666.152
2022-10-07T09:40:01.140Z,698.0500000000001
2022-10-07T09:45:01.119Z,561.2760000000001
2022-10-07T09:50:01.309Z,153.57
2022-10-07T09:55:01.356Z,159.506
2022-10-07T10:00:01.215Z,157.01
2022-10-07T10:05:01.158Z,572.557
2022-10-07T10:10:01.260Z,667.673
2022-10-07T10:15:01.393Z,695.527
2022-10-07T10:20:01.158Z,302.1
2022-10-07T10:25:01.192Z,278.44
2022-10-07T10:30:01.259Z,189.609
2022-10-07T10:35:01.249Z,592.264
2022-10-07T10:40:01.410Z,622.652
2022-10-07T10:45:01.193Z,584.297
2022-10-07T10:50:01.252Z,184.162
2022-10-07T10:55:01.430Z,282.92
2022-10-07T11:00:01.374Z,274.798
2022-10-07T11:05:01.225Z,686.714
2022-10-07T11:10:01.984Z,660.701
2022-10-07T11:15:02.088Z,520.168
2022-10-07T11:20:01.209Z,165.207
2022-10-07T11:25:01.374Z,163.08700000000002
2022-10-07T11:30:01.925Z,189.677
2022-10-07T11:35:01.364Z,590.501
2022-10-07T11:40:01.371Z,726.275
2022-10-07T11:45:01.284Z,329.725
2022-10-07T11:50:01.438Z,294.197
2022-10-07T11:55:01.257Z,190.654
2022-10-07T12:00:01.929Z,316.04200000000003
2022-10-07T12:05:01.237Z,587.763
2022-10-07T12:15:01.629Z,159.872
2022-10-07T12:20:01.346Z,221.601
2022-10-07T12:25:01.313Z,293.61400000000003
2022-10-07T12:30:01.334Z,697.928
2022-10-07T12:35:01.418Z,624.135
2022-10-07T12:40:01.524Z,175.798
2022-10-07T12:45:01.310Z,196.215
2022-10-07T12:50:01.293Z,194.854
2022-10-07T12:55:01.316Z,555.566
2022-10-07T13:00:01.588Z,700.018
2022-10-07T13:05:01.332Z,344.31100000000004
2022-10-07T13:10:01.471Z,399.596
2022-10-07T13:15:01.743Z,385.172
2022-10-07T13:20:01.381Z,650.403
2022-10-07T13:25:01.482Z,702.581
2022-10-07T13:30:01.645Z,338.988
2022-10-07T13:35:01.370Z,212.793
2022-10-07T13:40:01.362Z,233.013
2022-10-07T13:45:01.456Z,373.625
2022-10-07T13:50:01.900Z,762.047
2022-10-07T13:55:01.386Z,572.678
2022-10-07T14:00:01.544Z,335.771
2022-10-07T14:05:01.520Z,314.50100000000003
2022-10-07T14:10:01.704Z,266.286
2022-10-07T14:15:01.388Z,687.828
2022-10-07T14:20:01.406Z,621.741
2022-10-07T14:25:01.438Z,257.59000000000003
2022-10-07T14:30:01.438Z,236.434
2022-10-07T14:35:01.776Z,360.754
2022-10-07T14:40:01.501Z,810.0260000000001
2022-10-07T14:45:01.416Z,786.9060000000001
2022-10-07T14:50:01.442Z,732.996
2022-10-07T14:55:01.433Z,704.7280000000001
2022-10-07T15:00:01.569Z,673.883
2022-10-07T15:05:01.483Z,719.798
2022-10-07T15:10:01.421Z,696.101
2022-10-07T15:15:01.479Z,685.236
2022-10-07T15:20:01.501Z,713.4060000000001
2022-10-07T15:25:01.677Z,758.95
2022-10-07T15:30:01.480Z,1473.415
2022-10-07T15:35:01.421Z,2895.6530000000002
2022-10-07T15:40:01.496Z,2840.976
2022-10-07T15:45:01.578Z,1694.018
2022-10-07T15:50:01.682Z,2804.109
2022-10-07T15:55:05.163Z,5012.917
2022-10-07T16:00:01.455Z,4694.794
2022-10-07T16:05:01.475Z,5093.644
2022-10-07T16:10:01.451Z,4316.368
2022-10-07T16:15:01.656Z,3936.905
2022-10-07T16:20:01.471Z,3334.665
2022-10-07T16:25:01.519Z,4071.974
2022-10-07T16:30:01.643Z,2181.68
2022-10-07T16:35:01.542Z,744.696
2022-10-07T16:40:01.692Z,1018.461
2022-10-07T16:45:01.833Z,1673.775
2022-10-07T16:50:01.508Z,1148.07
2022-10-07T16:55:01.754Z,841.832
2022-10-07T17:00:01.670Z,814.283
2022-10-07T17:05:01.768Z,725.854
2022-10-07T17:10:01.645Z,708.677
2022-10-07T17:15:01.517Z,715.843
2022-10-07T17:20:01.569Z,696.826
2022-10-07T17:25:01.751Z,683.385
2022-10-07T17:30:01.576Z,763.688
2022-10-07T17:35:01.552Z,1095.037
2022-10-07T17:40:01.553Z,3462.714
2022-10-07T17:45:01.644Z,3054.7690000000002
2022-10-07T17:50:01.790Z,683.063
2022-10-07T17:55:01.564Z,792.924
2022-10-07T18:00:01.567Z,879.679
2022-10-07T18:05:01.611Z,867.7860000000001
2022-10-07T18:10:01.641Z,808.375
2022-10-07T18:15:01.838Z,818.107
2022-10-07T18:20:01.647Z,994.789
2022-10-07T18:25:01.659Z,1014.679
2022-10-07T18:30:01.758Z,986.974
2022-10-07T18:35:01.767Z,927.149
2022-10-07T18:40:01.595Z,951.144
2022-10-07T18:45:01.667Z,863.129
2022-10-07T18:50:01.874Z,296.907
2022-10-07T18:55:01.743Z,292.92
2022-10-07T19:00:01.628Z,392.297
2022-10-07T19:05:01.633Z,422.26800000000003
2022-10-07T19:10:01.610Z,437.25
2022-10-07T19:15:01.617Z,365.675
2022-10-07T19:20:01.782Z,289.288
2022-10-07T19:25:01.657Z,317.176
2022-10-07T19:30:01.693Z,323.63
2022-10-07T19:35:02.043Z,323.942
2022-10-07T19:40:01.669Z,338.466
2022-10-07T19:45:01.870Z,415.233
2022-10-07T19:50:01.701Z,972.791
2022-10-07T19:55:01.658Z,409.742
2022-10-07T20:00:01.662Z,328.645
2022-10-07T20:05:01.787Z,256.492
2022-10-07T20:10:01.715Z,271.073
2022-10-07T20:15:01.683Z,257.64
2022-10-07T20:20:01.675Z,258.722
2022-10-07T20:25:01.776Z,262.104
2022-10-07T20:30:01.878Z,341.359
2022-10-07T20:35:01.824Z,382.634
2022-10-07T20:40:01.931Z,363.885
2022-10-07T20:45:01.725Z,312.94100000000003
2022-10-07T20:50:01.743Z,245.946
2022-10-07T20:55:01.889Z,261.863
2022-10-07T21:00:01.750Z,261.36
2022-10-07T21:05:01.724Z,259.958
2022-10-07T21:10:01.726Z,258.87600000000003
2022-10-07T21:15:01.841Z,363.416
2022-10-07T21:20:01.905Z,384.843
2022-10-07T21:25:01.804Z,380.728
2022-10-07T21:30:01.867Z,632.325
2022-10-07T21:35:01.779Z,236.116
2022-10-07T21:40:01.834Z,237.832
2022-10-07T21:45:01.948Z,261.86
2022-10-07T21:50:01.739Z,261.48900000000003
2022-10-07T21:55:01.790Z,260.793
2022-10-07T22:00:01.887Z,358.039
2022-10-07T22:05:01.910Z,372.04900000000004
2022-10-07T22:10:01.969Z,312.865
2022-10-07T22:15:02.146Z,238.415
2022-10-07T22:20:01.839Z,195.42600000000002
2022-10-07T22:25:01.789Z,181.018
2022-10-07T22:30:01.911Z,2274.562
2022-10-07T22:35:01.999Z,1925.642
2022-10-07T22:40:01.826Z,212.71
2022-10-07T22:45:01.913Z,570.0120000000001
2022-10-07T22:50:01.796Z,334.769
2022-10-07T22:55:01.889Z,329.597
2022-10-07T23:00:02.105Z,278.428
2022-10-07T23:05:01.840Z,1916.729
2022-10-07T23:10:01.820Z,7673.561000000001
2022-10-07T23:15:01.817Z,7670.738
2022-10-07T23:20:01.986Z,7672.482
2022-10-07T23:25:02.079Z,7666.484
2022-10-07T23:30:01.859Z,7739.359
2022-10-07T23:35:01.905Z,7754.528
2022-10-07T23:40:01.885Z,7768.691
2022-10-07T23:45:01.969Z,7725.519
2022-10-07T23:50:02.058Z,7690.276
2022-10-07T23:55:01.868Z,7658.9130000000005
